sensor_id;sensor_type;location;lat;lon;timestamp;temperature;humidity
51175;DHT22;37240;50.104;20.010;2023-11-19T00:04:32;6.80;95.30
51175;DHT22;37240;50.104;20.010;2023-11-19T00:09:33;6.80;95.20
51175;DHT22;37240;50.104;20.010;2023-11-19T00:14:34;6.80;95.20
51175;DHT22;37240;50.104;20.010;2023-11-19T00:19:34;6.80;95.20
51175;DHT22;37240;50.104;20.010;2023-11-19T00:24:35;6.80;95.10
51175;DHT22;37240;50.104;20.010;2023-11-19T00:29:35;6.80;95.30
51175;DHT22;37240;50.104;20.010;2023-11-19T00:34:36;6.80;95.20
51175;DHT22;37240;50.104;20.010;2023-11-19T00:39:36;6.80;95.30
51175;DHT22;37240;50.104;20.010;2023-11-19T00:44:37;6.80;95.00
51175;DHT22;37240;50.104;20.010;2023-11-19T00:49:37;6.80;95.00
51175;DHT22;37240;50.104;20.010;2023-11-19T00:54:38;6.80;95.20
51175;DHT22;37240;50.104;20.010;2023-11-19T00:59:41;6.80;95.20
51175;DHT22;37240;50.104;20.010;2023-11-19T01:04:42;6.80;95.30
51175;DHT22;37240;50.104;20.010;2023-11-19T01:09:43;6.80;95.20
51175;DHT22;37240;50.104;20.010;2023-11-19T01:14:43;6.80;94.80
51175;DHT22;37240;50.104;20.010;2023-11-19T01:19:44;6.80;94.80
51175;DHT22;37240;50.104;20.010;2023-11-19T01:24:44;6.80;95.00
51175;DHT22;37240;50.104;20.010;2023-11-19T01:29:45;6.80;94.80
51175;DHT22;37240;50.104;20.010;2023-11-19T01:34:45;6.80;94.80
51175;DHT22;37240;50.104;20.010;2023-11-19T01:39:46;6.80;94.80
51175;DHT22;37240;50.104;20.010;2023-11-19T01:44:58;6.80;94.70
51175;DHT22;37240;50.104;20.010;2023-11-19T01:49:59;6.80;94.80
51175;DHT22;37240;50.104;20.010;2023-11-19T01:55:00;6.80;94.60
51175;DHT22;37240;50.104;20.010;2023-11-19T02:00:01;6.80;94.70
51175;DHT22;37240;50.104;20.010;2023-11-19T02:05:02;6.80;95.00
51175;DHT22;37240;50.104;20.010;2023-11-19T02:10:03;6.70;95.00
51175;DHT22;37240;50.104;20.010;2023-11-19T02:15:04;6.70;95.10
51175;DHT22;37240;50.104;20.010;2023-11-19T02:20:05;6.80;94.80
51175;DHT22;37240;50.104;20.010;2023-11-19T02:25:07;6.80;94.80
51175;DHT22;37240;50.104;20.010;2023-11-19T02:30:12;6.70;94.80
51175;DHT22;37240;50.104;20.010;2023-11-19T02:35:12;6.70;94.80
51175;DHT22;37240;50.104;20.010;2023-11-19T02:40:13;6.70;94.70
51175;DHT22;37240;50.104;20.010;2023-11-19T02:45:14;6.60;94.60
51175;DHT22;37240;50.104;20.010;2023-11-19T02:50:14;6.60;94.90
51175;DHT22;37240;50.104;20.010;2023-11-19T02:55:15;6.60;94.80
51175;DHT22;37240;50.104;20.010;2023-11-19T03:00:20;6.70;94.80
51175;DHT22;37240;50.104;20.010;2023-11-19T03:05:20;6.70;94.70
51175;DHT22;37240;50.104;20.010;2023-11-19T03:10:21;6.70;95.20
51175;DHT22;37240;50.104;20.010;2023-11-19T03:15:21;6.70;95.60
51175;DHT22;37240;50.104;20.010;2023-11-19T03:20:22;6.60;95.90
51175;DHT22;37240;50.104;20.010;2023-11-19T03:25:24;6.50;96.20
51175;DHT22;37240;50.104;20.010;2023-11-19T03:30:25;6.50;96.50
51175;DHT22;37240;50.104;20.010;2023-11-19T03:35:25;6.40;96.70
51175;DHT22;37240;50.104;20.010;2023-11-19T03:40:26;6.40;96.80
51175;DHT22;37240;50.104;20.010;2023-11-19T03:45:26;6.40;97.10
51175;DHT22;37240;50.104;20.010;2023-11-19T03:50:27;6.30;97.70
51175;DHT22;37240;50.104;20.010;2023-11-19T03:55:28;6.30;97.70
51175;DHT22;37240;50.104;20.010;2023-11-19T04:00:28;6.40;97.80
51175;DHT22;37240;50.104;20.010;2023-11-19T04:05:29;6.20;98.20
51175;DHT22;37240;50.104;20.010;2023-11-19T04:10:29;6.30;98.10
51175;DHT22;37240;50.104;20.010;2023-11-19T04:15:30;6.30;98.30
51175;DHT22;37240;50.104;20.010;2023-11-19T04:20:30;6.20;98.50
51175;DHT22;37240;50.104;20.010;2023-11-19T04:25:31;6.00;99.10
51175;DHT22;37240;50.104;20.010;2023-11-19T04:30:31;6.10;99.10
51175;DHT22;37240;50.104;20.010;2023-11-19T04:35:32;6.10;99.30
51175;DHT22;37240;50.104;20.010;2023-11-19T04:40:32;6.20;99.20
51175;DHT22;37240;50.104;20.010;2023-11-19T04:45:33;6.30;99.10
51175;DHT22;37240;50.104;20.010;2023-11-19T04:50:33;6.30;99.00
51175;DHT22;37240;50.104;20.010;2023-11-19T04:55:34;6.40;99.10
51175;DHT22;37240;50.104;20.010;2023-11-19T05:00:34;6.30;99.10
51175;DHT22;37240;50.104;20.010;2023-11-19T05:05:35;6.30;99.30
51175;DHT22;37240;50.104;20.010;2023-11-19T05:10:35;6.20;99.10
51175;DHT22;37240;50.104;20.010;2023-11-19T05:15:36;6.30;99.30
51175;DHT22;37240;50.104;20.010;2023-11-19T05:20:36;6.30;99.30
51175;DHT22;37240;50.104;20.010;2023-11-19T05:25:37;6.20;99.30
51175;DHT22;37240;50.104;20.010;2023-11-19T05:30:37;6.20;99.50
51175;DHT22;37240;50.104;20.010;2023-11-19T05:35:38;6.20;99.50
51175;DHT22;37240;50.104;20.010;2023-11-19T05:40:39;6.20;99.50
51175;DHT22;37240;50.104;20.010;2023-11-19T05:45:39;6.20;99.50
51175;DHT22;37240;50.104;20.010;2023-11-19T05:50:40;6.20;99.40
51175;DHT22;37240;50.104;20.010;2023-11-19T05:55:40;6.20;99.40
51175;DHT22;37240;50.104;20.010;2023-11-19T06:00:41;6.20;99.60
51175;DHT22;37240;50.104;20.010;2023-11-19T06:05:44;6.20;99.60
51175;DHT22;37240;50.104;20.010;2023-11-19T06:10:45;6.20;99.70
51175;DHT22;37240;50.104;20.010;2023-11-19T06:15:45;6.10;99.80
51175;DHT22;37240;50.104;20.010;2023-11-19T06:20:46;6.00;99.90
51175;DHT22;37240;50.104;20.010;2023-11-19T06:25:46;6.10;99.80
51175;DHT22;37240;50.104;20.010;2023-11-19T06:30:47;6.00;99.80
51175;DHT22;37240;50.104;20.010;2023-11-19T06:35:47;6.00;99.90
51175;DHT22;37240;50.104;20.010;2023-11-19T06:40:48;6.00;99.90
51175;DHT22;37240;50.104;20.010;2023-11-19T06:45:48;6.20;99.90
51175;DHT22;37240;50.104;20.010;2023-11-19T06:50:49;6.10;99.90
51175;DHT22;37240;50.104;20.010;2023-11-19T06:55:50;6.10;99.90
51175;DHT22;37240;50.104;20.010;2023-11-19T07:00:50;6.10;99.90
51175;DHT22;37240;50.104;20.010;2023-11-19T07:05:51;6.20;99.90
51175;DHT22;37240;50.104;20.010;2023-11-19T07:10:51;6.10;99.80
51175;DHT22;37240;50.104;20.010;2023-11-19T07:15:52;6.20;99.90
51175;DHT22;37240;50.104;20.010;2023-11-19T07:20:52;6.20;99.90
51175;DHT22;37240;50.104;20.010;2023-11-19T07:25:53;6.20;99.90
51175;DHT22;37240;50.104;20.010;2023-11-19T07:30:53;6.20;99.90
51175;DHT22;37240;50.104;20.010;2023-11-19T07:35:54;6.30;99.90
51175;DHT22;37240;50.104;20.010;2023-11-19T07:40:55;6.30;99.90
51175;DHT22;37240;50.104;20.010;2023-11-19T07:45:55;6.40;99.90
51175;DHT22;37240;50.104;20.010;2023-11-19T07:50:56;6.50;99.60
51175;DHT22;37240;50.104;20.010;2023-11-19T07:55:56;6.60;99.50
51175;DHT22;37240;50.104;20.010;2023-11-19T08:00:57;6.60;98.40
51175;DHT22;37240;50.104;20.010;2023-11-19T08:05:58;6.80;97.50
51175;DHT22;37240;50.104;20.010;2023-11-19T08:10:58;6.80;96.70
51175;DHT22;37240;50.104;20.010;2023-11-19T08:15:59;6.90;96.10
51175;DHT22;37240;50.104;20.010;2023-11-19T08:20:59;7.00;95.90
51175;DHT22;37240;50.104;20.010;2023-11-19T08:26:01;7.00;95.00
51175;DHT22;37240;50.104;20.010;2023-11-19T08:31:01;7.00;94.10
51175;DHT22;37240;50.104;20.010;2023-11-19T08:36:03;6.90;94.30
51175;DHT22;37240;50.104;20.010;2023-11-19T08:41:04;6.90;93.90
51175;DHT22;37240;50.104;20.010;2023-11-19T08:46:10;6.90;93.70
51175;DHT22;37240;50.104;20.010;2023-11-19T08:51:10;7.20;93.90
51175;DHT22;37240;50.104;20.010;2023-11-19T08:56:11;7.10;93.30
51175;DHT22;37240;50.104;20.010;2023-11-19T09:01:11;7.20;93.20
51175;DHT22;37240;50.104;20.010;2023-11-19T09:06:12;7.10;93.10
51175;DHT22;37240;50.104;20.010;2023-11-19T09:11:12;6.90;93.00
51175;DHT22;37240;50.104;20.010;2023-11-19T09:16:13;7.00;93.50
51175;DHT22;37240;50.104;20.010;2023-11-19T09:21:14;7.20;93.30
51175;DHT22;37240;50.104;20.010;2023-11-19T09:26:14;7.20;93.20
51175;DHT22;37240;50.104;20.010;2023-11-19T09:31:15;7.20;93.10
51175;DHT22;37240;50.104;20.010;2023-11-19T09:36:16;7.30;93.00
51175;DHT22;37240;50.104;20.010;2023-11-19T09:41:17;7.20;93.10
51175;DHT22;37240;50.104;20.010;2023-11-19T09:46:19;7.30;93.30
51175;DHT22;37240;50.104;20.010;2023-11-19T09:51:21;7.20;93.10
51175;DHT22;37240;50.104;20.010;2023-11-19T09:56:23;7.10;93.10
51175;DHT22;37240;50.104;20.010;2023-11-19T10:01:24;7.20;93.20
51175;DHT22;37240;50.104;20.010;2023-11-19T10:06:25;7.10;93.00
51175;DHT22;37240;50.104;20.010;2023-11-19T10:11:25;7.20;93.00
51175;DHT22;37240;50.104;20.010;2023-11-19T10:16:30;7.20;92.80
51175;DHT22;37240;50.104;20.010;2023-11-19T10:21:32;7.40;92.90
51175;DHT22;37240;50.104;20.010;2023-11-19T10:26:36;7.50;92.80
51175;DHT22;37240;50.104;20.010;2023-11-19T10:31:37;7.60;92.50
51175;DHT22;37240;50.104;20.010;2023-11-19T10:36:38;7.70;92.50
51175;DHT22;37240;50.104;20.010;2023-11-19T10:41:39;7.70;92.40
51175;DHT22;37240;50.104;20.010;2023-11-19T10:46:41;7.70;92.20
51175;DHT22;37240;50.104;20.010;2023-11-19T10:51:45;7.60;92.60
51175;DHT22;37240;50.104;20.010;2023-11-19T10:56:50;7.70;92.60
51175;DHT22;37240;50.104;20.010;2023-11-19T11:01:56;7.80;92.30
51175;DHT22;37240;50.104;20.010;2023-11-19T11:06:58;7.80;92.30
51175;DHT22;37240;50.104;20.010;2023-11-19T11:11:59;7.90;92.00
51175;DHT22;37240;50.104;20.010;2023-11-19T11:17:00;7.90;92.10
51175;DHT22;37240;50.104;20.010;2023-11-19T11:22:04;8.00;92.10
51175;DHT22;37240;50.104;20.010;2023-11-19T11:27:26;8.10;91.90
51175;DHT22;37240;50.104;20.010;2023-11-19T11:37:47;8.10;90.90
51175;DHT22;37240;50.104;20.010;2023-11-19T11:42:49;8.20;90.70
51175;DHT22;37240;50.104;20.010;2023-11-19T11:48:11;8.20;91.00
51175;DHT22;37240;50.104;20.010;2023-11-19T11:53:22;8.10;91.50
51175;DHT22;37240;50.104;20.010;2023-11-19T11:58:31;8.10;91.60
51175;DHT22;37240;50.104;20.010;2023-11-19T12:03:32;8.10;91.70
51175;DHT22;37240;50.104;20.010;2023-11-19T12:08:35;8.10;92.00
51175;DHT22;37240;50.104;20.010;2023-11-19T12:13:53;8.10;92.60
51175;DHT22;37240;50.104;20.010;2023-11-19T12:18:54;8.00;93.50
51175;DHT22;37240;50.104;20.010;2023-11-19T12:23:58;8.00;93.90
51175;DHT22;37240;50.104;20.010;2023-11-19T12:28:59;7.90;94.40
51175;DHT22;37240;50.104;20.010;2023-11-19T12:34:00;7.90;94.60
51175;DHT22;37240;50.104;20.010;2023-11-19T12:39:00;7.90;94.70
51175;DHT22;37240;50.104;20.010;2023-11-19T12:44:10;7.80;95.00
51175;DHT22;37240;50.104;20.010;2023-11-19T12:49:11;7.80;95.40
51175;DHT22;37240;50.104;20.010;2023-11-19T12:54:12;7.60;95.70
51175;DHT22;37240;50.104;20.010;2023-11-19T12:59:12;7.50;96.20
51175;DHT22;37240;50.104;20.010;2023-11-19T13:04:17;7.50;96.50
51175;DHT22;37240;50.104;20.010;2023-11-19T13:09:25;7.60;97.20
51175;DHT22;37240;50.104;20.010;2023-11-19T13:14:36;7.50;97.60
51175;DHT22;37240;50.104;20.010;2023-11-19T13:19:37;7.40;97.90
51175;DHT22;37240;50.104;20.010;2023-11-19T13:24:37;7.30;98.60
51175;DHT22;37240;50.104;20.010;2023-11-19T13:29:38;7.50;98.30
51175;DHT22;37240;50.104;20.010;2023-11-19T13:34:38;7.40;98.30
51175;DHT22;37240;50.104;20.010;2023-11-19T13:39:42;7.40;99.00
51175;DHT22;37240;50.104;20.010;2023-11-19T13:44:42;7.40;98.90
51175;DHT22;37240;50.104;20.010;2023-11-19T13:49:45;7.40;99.20
51175;DHT22;37240;50.104;20.010;2023-11-19T13:54:45;7.50;99.30
51175;DHT22;37240;50.104;20.010;2023-11-19T13:59:46;7.40;99.40
51175;DHT22;37240;50.104;20.010;2023-11-19T14:04:46;7.30;99.80
51175;DHT22;37240;50.104;20.010;2023-11-19T14:09:47;7.10;99.90
51175;DHT22;37240;50.104;20.010;2023-11-19T14:14:47;7.20;99.90
51175;DHT22;37240;50.104;20.010;2023-11-19T14:19:48;7.20;99.90
51175;DHT22;37240;50.104;20.010;2023-11-19T14:24:48;7.20;99.90
51175;DHT22;37240;50.104;20.010;2023-11-19T14:29:49;7.00;99.90
51175;DHT22;37240;50.104;20.010;2023-11-19T14:34:49;6.90;99.90
51175;DHT22;37240;50.104;20.010;2023-11-19T14:39:50;6.80;99.90
51175;DHT22;37240;50.104;20.010;2023-11-19T14:44:51;6.80;99.90
51175;DHT22;37240;50.104;20.010;2023-11-19T14:49:52;6.70;99.90
51175;DHT22;37240;50.104;20.010;2023-11-19T14:54:52;6.80;99.90
51175;DHT22;37240;50.104;20.010;2023-11-19T14:59:53;7.00;99.90
51175;DHT22;37240;50.104;20.010;2023-11-19T15:04:53;7.20;99.90
51175;DHT22;37240;50.104;20.010;2023-11-19T15:09:54;7.20;99.90
51175;DHT22;37240;50.104;20.010;2023-11-19T15:14:54;7.30;99.90
51175;DHT22;37240;50.104;20.010;2023-11-19T15:19:55;7.20;99.90
51175;DHT22;37240;50.104;20.010;2023-11-19T15:24:55;7.30;99.90
51175;DHT22;37240;50.104;20.010;2023-11-19T15:29:56;7.30;99.90
51175;DHT22;37240;50.104;20.010;2023-11-19T15:34:56;7.20;99.90
51175;DHT22;37240;50.104;20.010;2023-11-19T15:39:57;7.10;99.90
51175;DHT22;37240;50.104;20.010;2023-11-19T15:44:57;7.10;99.90
51175;DHT22;37240;50.104;20.010;2023-11-19T15:49:59;7.20;99.90
51175;DHT22;37240;50.104;20.010;2023-11-19T15:54:59;7.30;99.90
51175;DHT22;37240;50.104;20.010;2023-11-19T16:00:00;7.40;99.90
51175;DHT22;37240;50.104;20.010;2023-11-19T16:05:01;7.40;99.90
51175;DHT22;37240;50.104;20.010;2023-11-19T16:10:02;7.40;99.90
51175;DHT22;37240;50.104;20.010;2023-11-19T16:15:02;7.40;99.90
51175;DHT22;37240;50.104;20.010;2023-11-19T16:20:03;7.50;99.90
51175;DHT22;37240;50.104;20.010;2023-11-19T16:25:04;7.60;99.90
51175;DHT22;37240;50.104;20.010;2023-11-19T16:30:06;7.60;99.90
51175;DHT22;37240;50.104;20.010;2023-11-19T16:35:07;7.60;99.90
51175;DHT22;37240;50.104;20.010;2023-11-19T16:40:08;7.60;99.90
51175;DHT22;37240;50.104;20.010;2023-11-19T16:45:09;7.60;99.90
51175;DHT22;37240;50.104;20.010;2023-11-19T16:50:09;7.70;99.90
51175;DHT22;37240;50.104;20.010;2023-11-19T16:55:10;7.70;99.90
51175;DHT22;37240;50.104;20.010;2023-11-19T17:00:11;7.70;99.90
51175;DHT22;37240;50.104;20.010;2023-11-19T17:05:11;7.80;99.90
51175;DHT22;37240;50.104;20.010;2023-11-19T17:10:12;7.80;99.90
51175;DHT22;37240;50.104;20.010;2023-11-19T17:15:12;7.90;99.90
51175;DHT22;37240;50.104;20.010;2023-11-19T17:20:13;7.90;99.90
51175;DHT22;37240;50.104;20.010;2023-11-19T17:25:13;7.90;99.90
51175;DHT22;37240;50.104;20.010;2023-11-19T17:30:14;7.90;99.90
51175;DHT22;37240;50.104;20.010;2023-11-19T17:35:15;8.00;99.90
51175;DHT22;37240;50.104;20.010;2023-11-19T17:40:15;8.00;99.90
51175;DHT22;37240;50.104;20.010;2023-11-19T17:45:16;8.00;99.90
51175;DHT22;37240;50.104;20.010;2023-11-19T17:50:16;7.90;99.90
51175;DHT22;37240;50.104;20.010;2023-11-19T17:55:17;8.00;99.90
51175;DHT22;37240;50.104;20.010;2023-11-19T18:00:18;8.10;99.90
51175;DHT22;37240;50.104;20.010;2023-11-19T18:05:18;8.00;99.90
51175;DHT22;37240;50.104;20.010;2023-11-19T18:10:19;8.00;99.90
51175;DHT22;37240;50.104;20.010;2023-11-19T18:15:19;8.00;99.90
51175;DHT22;37240;50.104;20.010;2023-11-19T18:20:20;8.00;99.90
51175;DHT22;37240;50.104;20.010;2023-11-19T18:25:20;8.00;99.90
51175;DHT22;37240;50.104;20.010;2023-11-19T18:30:21;8.00;99.90
51175;DHT22;37240;50.104;20.010;2023-11-19T18:35:22;8.00;99.90
51175;DHT22;37240;50.104;20.010;2023-11-19T18:40:22;7.90;99.90
51175;DHT22;37240;50.104;20.010;2023-11-19T18:45:23;7.90;99.90
51175;DHT22;37240;50.104;20.010;2023-11-19T18:50:23;7.80;99.90
51175;DHT22;37240;50.104;20.010;2023-11-19T18:55:24;7.80;99.90
51175;DHT22;37240;50.104;20.010;2023-11-19T19:00:24;7.90;99.90
51175;DHT22;37240;50.104;20.010;2023-11-19T19:05:25;8.00;99.90
51175;DHT22;37240;50.104;20.010;2023-11-19T19:10:25;8.10;99.90
51175;DHT22;37240;50.104;20.010;2023-11-19T19:15:26;8.10;99.90
51175;DHT22;37240;50.104;20.010;2023-11-19T19:20:26;8.10;99.90
51175;DHT22;37240;50.104;20.010;2023-11-19T19:25:27;8.10;99.90
51175;DHT22;37240;50.104;20.010;2023-11-19T19:30:28;8.20;99.90
51175;DHT22;37240;50.104;20.010;2023-11-19T19:35:28;8.20;99.90
51175;DHT22;37240;50.104;20.010;2023-11-19T19:40:29;8.20;99.90
51175;DHT22;37240;50.104;20.010;2023-11-19T19:45:29;8.10;99.90
51175;DHT22;37240;50.104;20.010;2023-11-19T19:50:30;8.10;99.90
51175;DHT22;37240;50.104;20.010;2023-11-19T19:55:30;8.10;99.90
51175;DHT22;37240;50.104;20.010;2023-11-19T20:00:31;8.10;99.90
51175;DHT22;37240;50.104;20.010;2023-11-19T20:05:31;8.10;99.90
51175;DHT22;37240;50.104;20.010;2023-11-19T20:10:32;8.20;99.90
51175;DHT22;37240;50.104;20.010;2023-11-19T20:15:32;8.10;99.90
51175;DHT22;37240;50.104;20.010;2023-11-19T20:20:33;8.20;99.90
51175;DHT22;37240;50.104;20.010;2023-11-19T20:25:33;8.30;99.90
51175;DHT22;37240;50.104;20.010;2023-11-19T20:30:34;8.40;99.90
51175;DHT22;37240;50.104;20.010;2023-11-19T20:35:34;8.50;99.90
51175;DHT22;37240;50.104;20.010;2023-11-19T20:40:35;8.50;99.90
51175;DHT22;37240;50.104;20.010;2023-11-19T20:45:35;8.40;99.90
51175;DHT22;37240;50.104;20.010;2023-11-19T20:50:36;8.40;99.90
51175;DHT22;37240;50.104;20.010;2023-11-19T20:55:38;8.30;99.90
51175;DHT22;37240;50.104;20.010;2023-11-19T21:00:38;8.10;99.90
51175;DHT22;37240;50.104;20.010;2023-11-19T21:05:39;8.10;99.90
51175;DHT22;37240;50.104;20.010;2023-11-19T21:10:39;8.10;99.90
51175;DHT22;37240;50.104;20.010;2023-11-19T21:15:40;8.20;99.90
51175;DHT22;37240;50.104;20.010;2023-11-19T21:20:40;8.30;99.90
51175;DHT22;37240;50.104;20.010;2023-11-19T21:25:41;8.40;99.90
51175;DHT22;37240;50.104;20.010;2023-11-19T21:30:42;8.40;99.90
51175;DHT22;37240;50.104;20.010;2023-11-19T21:35:42;8.60;99.90
51175;DHT22;37240;50.104;20.010;2023-11-19T21:40:43;8.70;99.90
51175;DHT22;37240;50.104;20.010;2023-11-19T21:45:47;8.70;99.90
51175;DHT22;37240;50.104;20.010;2023-11-19T21:50:47;8.80;99.90
51175;DHT22;37240;50.104;20.010;2023-11-19T21:55:48;8.90;99.90
51175;DHT22;37240;50.104;20.010;2023-11-19T22:00:48;9.00;99.90
51175;DHT22;37240;50.104;20.010;2023-11-19T22:05:49;9.10;99.90
51175;DHT22;37240;50.104;20.010;2023-11-19T22:10:50;9.10;99.90
51175;DHT22;37240;50.104;20.010;2023-11-19T22:15:50;9.10;99.90
51175;DHT22;37240;50.104;20.010;2023-11-19T22:20:51;9.20;99.90
51175;DHT22;37240;50.104;20.010;2023-11-19T22:25:52;9.20;99.90
51175;DHT22;37240;50.104;20.010;2023-11-19T22:30:52;9.30;99.90
51175;DHT22;37240;50.104;20.010;2023-11-19T22:35:53;9.30;99.90
51175;DHT22;37240;50.104;20.010;2023-11-19T22:40:53;9.30;99.90
51175;DHT22;37240;50.104;20.010;2023-11-19T22:45:54;9.30;99.90
51175;DHT22;37240;50.104;20.010;2023-11-19T22:50:54;9.20;99.90
51175;DHT22;37240;50.104;20.010;2023-11-19T22:55:55;9.30;99.90
51175;DHT22;37240;50.104;20.010;2023-11-19T23:00:55;9.30;99.90
51175;DHT22;37240;50.104;20.010;2023-11-19T23:05:56;9.30;99.90
51175;DHT22;37240;50.104;20.010;2023-11-19T23:10:56;9.30;99.90
51175;DHT22;37240;50.104;20.010;2023-11-19T23:15:57;9.30;99.90
51175;DHT22;37240;50.104;20.010;2023-11-19T23:20:58;9.30;99.90
51175;DHT22;37240;50.104;20.010;2023-11-19T23:25:58;9.20;99.90
51175;DHT22;37240;50.104;20.010;2023-11-19T23:30:59;9.20;99.90
51175;DHT22;37240;50.104;20.010;2023-11-19T23:35:59;9.20;99.90
51175;DHT22;37240;50.104;20.010;2023-11-19T23:41:00;9.20;99.90
51175;DHT22;37240;50.104;20.010;2023-11-19T23:46:00;9.30;99.90
51175;DHT22;37240;50.104;20.010;2023-11-19T23:51:01;9.30;99.90
51175;DHT22;37240;50.104;20.010;2023-11-19T23:56:01;9.40;99.90
